Portada
METAR-TAF:

METAR-TAF

Aeroports :

Phnom Penh, Cambodja

latitud: 11-33N, longitud: 104-51E, altitud: 10 m

Observació

L'informe es va fer fa 37 minuts, a les 04:00 UTC
Vent 5 kt del Oest, variant entre Sud/Sud-Oest i Nord
Temperatura 34°C
Humitat 56%
Pressió 1009 hPa
Visibilitat 10 km o més
Núvols disperses a una alçada de 1700 ft

METAR: VDPP 220400Z 27005KT 210V360 9999 SCT017 34/24 Q1009

Hora: 11:37 (04:37 UTC)

Pronòstic

L'informe es va fer fa 5 hores i 37 minuts, a les 23:00 UTC
Pronòstic vàlid del 22 a les 00 UTC al 22 a les 18 UTC
Vent 7 kt del Sud
Visibilitat 10 km o més
Escasses núvols a una alçada de 1700 ft
Temporalment
l' 22 a les 07 UTC al 22 a les 11 UTC
Visibilitat: 4000 m
Núvols disperses a una alçada de 1500 ft
Escasses núvols a una alçada de 1700 ft, Cumulonimbus.
Cel ennuvolat a una alçada de 4000 ft
tempesta, pluja

TAF: VDPP 212300Z 2200/2218 19007KT 9999 FEW017 TEMPO 2207/2211 4000 TSRA SCT015 FEW017CB BKN040

Observacions i pronòstics meteorològics de més de 4000 aeroports (METAR i TAF).

Les estacions disponibles són els punts grocs i vermells al mapa.

Posi el ratolí al punt desitjat per veure el nom de l'estació.

Feu clic per veure les observacions i els pronòstics meteorològics.

Per canviar el mapa: feu clic els botons verds amb una creu de color negre per apropar; al botó verd amb un guió per allunyar la imatge; o en les fletxes verdes per a mapes adjacents.


METAR-TAF: